sensor_id;sensor_type;location;lat;lon;timestamp;temperature;humidity
22006;DHT22;11167;46.988;15.470;2023-05-10T00:01:53;14.50;73.00
22006;DHT22;11167;46.988;15.470;2023-05-10T00:03:55;14.50;73.10
22006;DHT22;11167;46.988;15.470;2023-05-10T00:05:56;14.40;73.00
22006;DHT22;11167;46.988;15.470;2023-05-10T00:07:57;14.40;73.00
22006;DHT22;11167;46.988;15.470;2023-05-10T00:09:58;14.40;73.00
22006;DHT22;11167;46.988;15.470;2023-05-10T00:11:59;14.40;73.10
22006;DHT22;11167;46.988;15.470;2023-05-10T00:14:00;14.40;73.10
22006;DHT22;11167;46.988;15.470;2023-05-10T00:16:01;14.30;73.00
22006;DHT22;11167;46.988;15.470;2023-05-10T00:18:03;14.30;73.00
22006;DHT22;11167;46.988;15.470;2023-05-10T00:20:04;14.30;73.00
22006;DHT22;11167;46.988;15.470;2023-05-10T00:22:06;14.30;73.10
22006;DHT22;11167;46.988;15.470;2023-05-10T00:24:07;14.20;73.00
22006;DHT22;11167;46.988;15.470;2023-05-10T00:26:08;14.20;73.00
22006;DHT22;11167;46.988;15.470;2023-05-10T00:28:09;14.20;73.10
22006;DHT22;11167;46.988;15.470;2023-05-10T00:30:10;14.20;73.00
22006;DHT22;11167;46.988;15.470;2023-05-10T00:32:11;14.10;73.00
22006;DHT22;11167;46.988;15.470;2023-05-10T00:34:12;14.10;73.10
22006;DHT22;11167;46.988;15.470;2023-05-10T00:36:13;14.10;73.00
22006;DHT22;11167;46.988;15.470;2023-05-10T00:38:14;14.10;73.10
22006;DHT22;11167;46.988;15.470;2023-05-10T00:40:15;14.10;73.10
22006;DHT22;11167;46.988;15.470;2023-05-10T00:42:16;14.10;73.10
22006;DHT22;11167;46.988;15.470;2023-05-10T00:44:18;14.00;73.00
22006;DHT22;11167;46.988;15.470;2023-05-10T00:46:19;14.00;73.10
22006;DHT22;11167;46.988;15.470;2023-05-10T00:48:21;14.00;73.10
22006;DHT22;11167;46.988;15.470;2023-05-10T00:50:23;14.00;73.10
22006;DHT22;11167;46.988;15.470;2023-05-10T00:52:25;13.90;73.00
22006;DHT22;11167;46.988;15.470;2023-05-10T00:54:26;13.90;73.10
22006;DHT22;11167;46.988;15.470;2023-05-10T00:56:27;13.90;73.10
22006;DHT22;11167;46.988;15.470;2023-05-10T00:58:30;13.90;73.10
22006;DHT22;11167;46.988;15.470;2023-05-10T01:00:32;13.90;73.10
22006;DHT22;11167;46.988;15.470;2023-05-10T01:02:35;13.80;73.10
22006;DHT22;11167;46.988;15.470;2023-05-10T01:04:37;13.80;73.10
22006;DHT22;11167;46.988;15.470;2023-05-10T01:06:42;13.80;73.10
22006;DHT22;11167;46.988;15.470;2023-05-10T01:08:44;13.80;73.20
22006;DHT22;11167;46.988;15.470;2023-05-10T01:10:45;13.80;73.50
22006;DHT22;11167;46.988;15.470;2023-05-10T01:12:47;13.70;73.20
22006;DHT22;11167;46.988;15.470;2023-05-10T01:14:48;13.70;73.20
22006;DHT22;11167;46.988;15.470;2023-05-10T01:16:49;13.70;73.20
22006;DHT22;11167;46.988;15.470;2023-05-10T01:18:51;13.70;73.20
22006;DHT22;11167;46.988;15.470;2023-05-10T01:28:21;13.60;73.20
22006;DHT22;11167;46.988;15.470;2023-05-10T01:31:01;13.60;73.20
22006;DHT22;11167;46.988;15.470;2023-05-10T01:46:16;13.40;73.20
22006;DHT22;11167;46.988;15.470;2023-05-10T01:48:19;13.40;74.10
22006;DHT22;11167;46.988;15.470;2023-05-10T01:50:24;13.30;73.20
22006;DHT22;11167;46.988;15.470;2023-05-10T01:52:36;13.30;73.20
22006;DHT22;11167;46.988;15.470;2023-05-10T01:54:44;13.30;73.30
22006;DHT22;11167;46.988;15.470;2023-05-10T01:57:06;13.30;73.30
22006;DHT22;11167;46.988;15.470;2023-05-10T01:59:12;13.30;73.30
22006;DHT22;11167;46.988;15.470;2023-05-10T02:01:15;13.20;74.10
22006;DHT22;11167;46.988;15.470;2023-05-10T02:03:18;13.20;73.30
22006;DHT22;11167;46.988;15.470;2023-05-10T02:05:22;13.20;73.30
22006;DHT22;11167;46.988;15.470;2023-05-10T02:07:26;13.20;73.30
22006;DHT22;11167;46.988;15.470;2023-05-10T02:09:28;13.20;73.30
22006;DHT22;11167;46.988;15.470;2023-05-10T02:11:31;13.10;73.90
22006;DHT22;11167;46.988;15.470;2023-05-10T02:13:34;13.10;73.30
22006;DHT22;11167;46.988;15.470;2023-05-10T02:15:37;13.10;73.30
22006;DHT22;11167;46.988;15.470;2023-05-10T02:17:40;13.10;73.40
22006;DHT22;11167;46.988;15.470;2023-05-10T02:19:43;13.00;73.30
22006;DHT22;11167;46.988;15.470;2023-05-10T02:21:46;13.00;73.40
22006;DHT22;11167;46.988;15.470;2023-05-10T02:23:50;13.00;73.40
22006;DHT22;11167;46.988;15.470;2023-05-10T02:25:53;13.00;73.30
22006;DHT22;11167;46.988;15.470;2023-05-10T02:27:56;13.00;73.50
22006;DHT22;11167;46.988;15.470;2023-05-10T02:29:58;12.90;73.40
22006;DHT22;11167;46.988;15.470;2023-05-10T02:32:00;13.00;73.40
22006;DHT22;11167;46.988;15.470;2023-05-10T02:34:02;12.90;73.40
22006;DHT22;11167;46.988;15.470;2023-05-10T02:36:10;12.90;73.40
22006;DHT22;11167;46.988;15.470;2023-05-10T02:38:14;12.90;73.40
22006;DHT22;11167;46.988;15.470;2023-05-10T02:40:15;12.90;73.40
22006;DHT22;11167;46.988;15.470;2023-05-10T02:42:19;12.80;73.40
22006;DHT22;11167;46.988;15.470;2023-05-10T02:44:22;12.80;73.40
22006;DHT22;11167;46.988;15.470;2023-05-10T02:46:24;12.80;73.40
22006;DHT22;11167;46.988;15.470;2023-05-10T02:48:26;12.80;73.40
22006;DHT22;11167;46.988;15.470;2023-05-10T02:50:28;12.80;73.40
22006;DHT22;11167;46.988;15.470;2023-05-10T02:52:46;12.80;73.40
22006;DHT22;11167;46.988;15.470;2023-05-10T02:54:46;12.80;73.50
22006;DHT22;11167;46.988;15.470;2023-05-10T02:56:51;12.70;73.50
22006;DHT22;11167;46.988;15.470;2023-05-10T02:58:53;12.70;73.50
22006;DHT22;11167;46.988;15.470;2023-05-10T03:00:55;12.70;73.50
22006;DHT22;11167;46.988;15.470;2023-05-10T03:02:56;12.70;73.50
22006;DHT22;11167;46.988;15.470;2023-05-10T03:04:57;12.70;74.30
22006;DHT22;11167;46.988;15.470;2023-05-10T03:06:59;12.60;73.40
22006;DHT22;11167;46.988;15.470;2023-05-10T03:09:01;12.60;73.40
22006;DHT22;11167;46.988;15.470;2023-05-10T03:13:42;12.60;73.50
22006;DHT22;11167;46.988;15.470;2023-05-10T03:15:56;12.60;74.30
22006;DHT22;11167;46.988;15.470;2023-05-10T03:17:59;12.50;74.30
22006;DHT22;11167;46.988;15.470;2023-05-10T03:20:06;12.50;73.50
22006;DHT22;11167;46.988;15.470;2023-05-10T03:22:09;12.50;74.40
22006;DHT22;11167;46.988;15.470;2023-05-10T03:24:10;12.50;73.60
22006;DHT22;11167;46.988;15.470;2023-05-10T03:26:26;12.50;74.30
22006;DHT22;11167;46.988;15.470;2023-05-10T03:28:28;12.40;73.60
22006;DHT22;11167;46.988;15.470;2023-05-10T03:30:30;12.40;73.60
22006;DHT22;11167;46.988;15.470;2023-05-10T03:32:31;12.40;73.60
22006;DHT22;11167;46.988;15.470;2023-05-10T03:34:33;12.40;73.60
22006;DHT22;11167;46.988;15.470;2023-05-10T03:36:34;12.40;73.60
22006;DHT22;11167;46.988;15.470;2023-05-10T03:38:36;12.40;73.60
22006;DHT22;11167;46.988;15.470;2023-05-10T03:40:37;12.30;73.60
22006;DHT22;11167;46.988;15.470;2023-05-10T03:42:39;12.30;73.60
22006;DHT22;11167;46.988;15.470;2023-05-10T03:44:41;12.30;73.60
22006;DHT22;11167;46.988;15.470;2023-05-10T03:46:42;12.30;73.70
22006;DHT22;11167;46.988;15.470;2023-05-10T03:48:43;12.30;73.70
22006;DHT22;11167;46.988;15.470;2023-05-10T03:50:44;12.20;73.60
22006;DHT22;11167;46.988;15.470;2023-05-10T03:52:45;12.20;73.60
22006;DHT22;11167;46.988;15.470;2023-05-10T03:54:46;12.30;73.70
22006;DHT22;11167;46.988;15.470;2023-05-10T03:56:47;12.20;73.60
22006;DHT22;11167;46.988;15.470;2023-05-10T03:58:48;12.20;73.60
22006;DHT22;11167;46.988;15.470;2023-05-10T04:00:51;12.20;73.60
22006;DHT22;11167;46.988;15.470;2023-05-10T04:02:52;12.20;73.60
22006;DHT22;11167;46.988;15.470;2023-05-10T04:04:53;12.10;73.60
22006;DHT22;11167;46.988;15.470;2023-05-10T04:06:54;12.10;73.60
22006;DHT22;11167;46.988;15.470;2023-05-10T04:08:55;12.10;73.70
22006;DHT22;11167;46.988;15.470;2023-05-10T04:11:06;12.10;73.70
22006;DHT22;11167;46.988;15.470;2023-05-10T04:13:08;12.10;73.70
22006;DHT22;11167;46.988;15.470;2023-05-10T04:15:09;12.10;73.70
22006;DHT22;11167;46.988;15.470;2023-05-10T04:17:10;12.00;73.70
22006;DHT22;11167;46.988;15.470;2023-05-10T04:19:12;12.00;73.70
22006;DHT22;11167;46.988;15.470;2023-05-10T04:21:14;12.00;73.70
22006;DHT22;11167;46.988;15.470;2023-05-10T04:23:15;12.00;73.70
22006;DHT22;11167;46.988;15.470;2023-05-10T04:25:17;12.00;73.70
22006;DHT22;11167;46.988;15.470;2023-05-10T04:27:19;12.00;73.70
22006;DHT22;11167;46.988;15.470;2023-05-10T04:29:20;12.00;73.80
22006;DHT22;11167;46.988;15.470;2023-05-10T04:31:21;11.90;73.70
22006;DHT22;11167;46.988;15.470;2023-05-10T04:33:22;11.90;73.70
22006;DHT22;11167;46.988;15.470;2023-05-10T04:35:23;11.90;73.80
22006;DHT22;11167;46.988;15.470;2023-05-10T04:37:24;11.90;73.80
22006;DHT22;11167;46.988;15.470;2023-05-10T04:39:49;11.90;73.80
22006;DHT22;11167;46.988;15.470;2023-05-10T04:41:55;11.90;73.80
22006;DHT22;11167;46.988;15.470;2023-05-10T04:43:56;11.90;73.90
22006;DHT22;11167;46.988;15.470;2023-05-10T04:45:57;11.80;73.80
22006;DHT22;11167;46.988;15.470;2023-05-10T04:47:58;11.80;73.90
22006;DHT22;11167;46.988;15.470;2023-05-10T04:50:00;11.80;73.90
22006;DHT22;11167;46.988;15.470;2023-05-10T04:52:01;11.80;73.90
22006;DHT22;11167;46.988;15.470;2023-05-10T04:54:02;11.80;73.90
22006;DHT22;11167;46.988;15.470;2023-05-10T04:56:04;11.80;73.90
22006;DHT22;11167;46.988;15.470;2023-05-10T04:58:05;11.80;73.90
22006;DHT22;11167;46.988;15.470;2023-05-10T05:00:07;11.80;73.90
22006;DHT22;11167;46.988;15.470;2023-05-10T05:02:08;11.70;73.90
22006;DHT22;11167;46.988;15.470;2023-05-10T05:04:09;11.70;73.90
22006;DHT22;11167;46.988;15.470;2023-05-10T05:06:10;11.70;73.90
22006;DHT22;11167;46.988;15.470;2023-05-10T05:08:11;11.70;73.90
22006;DHT22;11167;46.988;15.470;2023-05-10T05:10:12;11.70;73.90
22006;DHT22;11167;46.988;15.470;2023-05-10T05:12:13;11.70;74.00
22006;DHT22;11167;46.988;15.470;2023-05-10T05:14:14;11.70;74.00
22006;DHT22;11167;46.988;15.470;2023-05-10T05:16:16;11.70;73.90
22006;DHT22;11167;46.988;15.470;2023-05-10T05:18:17;11.70;74.00
22006;DHT22;11167;46.988;15.470;2023-05-10T05:20:18;11.70;74.00
22006;DHT22;11167;46.988;15.470;2023-05-10T05:22:19;11.70;74.00
22006;DHT22;11167;46.988;15.470;2023-05-10T05:24:22;11.60;74.00
22006;DHT22;11167;46.988;15.470;2023-05-10T05:26:23;11.70;74.00
22006;DHT22;11167;46.988;15.470;2023-05-10T05:28:25;11.60;74.00
22006;DHT22;11167;46.988;15.470;2023-05-10T05:30:27;11.60;74.00
22006;DHT22;11167;46.988;15.470;2023-05-10T05:32:28;11.60;74.00
22006;DHT22;11167;46.988;15.470;2023-05-10T05:34:29;11.60;74.10
22006;DHT22;11167;46.988;15.470;2023-05-10T05:36:30;11.60;74.90
22006;DHT22;11167;46.988;15.470;2023-05-10T05:38:32;11.60;74.10
22006;DHT22;11167;46.988;15.470;2023-05-10T05:40:33;11.60;74.10
22006;DHT22;11167;46.988;15.470;2023-05-10T05:42:34;11.60;74.20
22006;DHT22;11167;46.988;15.470;2023-05-10T05:44:35;11.60;74.10
22006;DHT22;11167;46.988;15.470;2023-05-10T05:46:36;11.60;74.20
22006;DHT22;11167;46.988;15.470;2023-05-10T05:48:37;11.60;74.10
22006;DHT22;11167;46.988;15.470;2023-05-10T05:50:38;11.60;74.10
22006;DHT22;11167;46.988;15.470;2023-05-10T05:52:40;11.50;74.10
22006;DHT22;11167;46.988;15.470;2023-05-10T05:54:41;11.50;74.10
22006;DHT22;11167;46.988;15.470;2023-05-10T05:56:42;11.50;74.10
22006;DHT22;11167;46.988;15.470;2023-05-10T05:58:43;11.50;74.10
22006;DHT22;11167;46.988;15.470;2023-05-10T06:00:45;11.60;74.30
22006;DHT22;11167;46.988;15.470;2023-05-10T06:02:46;11.50;74.10
22006;DHT22;11167;46.988;15.470;2023-05-10T06:04:47;11.50;74.20
22006;DHT22;11167;46.988;15.470;2023-05-10T06:06:48;11.50;74.20
22006;DHT22;11167;46.988;15.470;2023-05-10T06:08:49;11.50;74.30
22006;DHT22;11167;46.988;15.470;2023-05-10T06:10:50;11.50;74.30
22006;DHT22;11167;46.988;15.470;2023-05-10T06:12:51;11.50;74.30
22006;DHT22;11167;46.988;15.470;2023-05-10T06:14:52;11.60;75.20
22006;DHT22;11167;46.988;15.470;2023-05-10T06:16:53;11.50;74.30
22006;DHT22;11167;46.988;15.470;2023-05-10T06:18:54;11.50;74.30
22006;DHT22;11167;46.988;15.470;2023-05-10T06:20:56;11.50;74.30
22006;DHT22;11167;46.988;15.470;2023-05-10T06:22:58;11.50;74.30
22006;DHT22;11167;46.988;15.470;2023-05-10T06:24:59;11.50;74.30
22006;DHT22;11167;46.988;15.470;2023-05-10T06:27:00;11.50;74.30
22006;DHT22;11167;46.988;15.470;2023-05-10T06:29:01;11.50;74.30
22006;DHT22;11167;46.988;15.470;2023-05-10T06:31:02;11.50;74.30
22006;DHT22;11167;46.988;15.470;2023-05-10T06:33:03;11.50;74.30
22006;DHT22;11167;46.988;15.470;2023-05-10T06:35:04;11.50;74.30
22006;DHT22;11167;46.988;15.470;2023-05-10T06:37:05;11.50;74.30
22006;DHT22;11167;46.988;15.470;2023-05-10T06:39:06;11.60;74.40
22006;DHT22;11167;46.988;15.470;2023-05-10T06:41:08;11.50;74.30
22006;DHT22;11167;46.988;15.470;2023-05-10T06:43:09;11.50;74.30
22006;DHT22;11167;46.988;15.470;2023-05-10T06:45:10;11.50;74.30
22006;DHT22;11167;46.988;15.470;2023-05-10T06:47:12;11.50;74.30
22006;DHT22;11167;46.988;15.470;2023-05-10T06:49:13;11.50;74.30
22006;DHT22;11167;46.988;15.470;2023-05-10T06:51:14;11.50;74.40
22006;DHT22;11167;46.988;15.470;2023-05-10T06:53:15;11.50;74.30
22006;DHT22;11167;46.988;15.470;2023-05-10T06:55:16;11.60;74.40
22006;DHT22;11167;46.988;15.470;2023-05-10T06:57:17;11.60;74.30
22006;DHT22;11167;46.988;15.470;2023-05-10T06:59:18;11.60;74.40
22006;DHT22;11167;46.988;15.470;2023-05-10T07:01:20;11.60;74.40
22006;DHT22;11167;46.988;15.470;2023-05-10T07:03:21;11.60;74.40
22006;DHT22;11167;46.988;15.470;2023-05-10T07:05:22;11.60;74.30
22006;DHT22;11167;46.988;15.470;2023-05-10T07:07:23;11.60;74.40
22006;DHT22;11167;46.988;15.470;2023-05-10T07:09:24;11.60;75.20
22006;DHT22;11167;46.988;15.470;2023-05-10T07:11:26;11.60;75.10
22006;DHT22;11167;46.988;15.470;2023-05-10T07:13:28;11.60;74.30
22006;DHT22;11167;46.988;15.470;2023-05-10T07:15:29;11.60;74.40
22006;DHT22;11167;46.988;15.470;2023-05-10T07:17:30;11.60;74.40
22006;DHT22;11167;46.988;15.470;2023-05-10T07:19:31;11.60;74.30
22006;DHT22;11167;46.988;15.470;2023-05-10T07:21:33;11.60;74.30
22006;DHT22;11167;46.988;15.470;2023-05-10T07:23:44;11.60;74.30
22006;DHT22;11167;46.988;15.470;2023-05-10T07:25:48;11.60;74.30
22006;DHT22;11167;46.988;15.470;2023-05-10T07:27:51;11.70;74.40
22006;DHT22;11167;46.988;15.470;2023-05-10T07:29:53;11.60;74.90
22006;DHT22;11167;46.988;15.470;2023-05-10T07:31:56;11.60;74.50
22006;DHT22;11167;46.988;15.470;2023-05-10T07:33:57;11.70;74.60
22006;DHT22;11167;46.988;15.470;2023-05-10T07:35:59;11.70;74.50
22006;DHT22;11167;46.988;15.470;2023-05-10T07:38:00;11.70;74.60
22006;DHT22;11167;46.988;15.470;2023-05-10T07:40:02;11.70;74.50
22006;DHT22;11167;46.988;15.470;2023-05-10T07:42:04;11.70;74.60
22006;DHT22;11167;46.988;15.470;2023-05-10T07:44:06;11.70;75.40
22006;DHT22;11167;46.988;15.470;2023-05-10T07:46:07;11.70;74.60
22006;DHT22;11167;46.988;15.470;2023-05-10T07:48:11;11.80;74.70
22006;DHT22;11167;46.988;15.470;2023-05-10T07:50:12;11.80;74.70
22006;DHT22;11167;46.988;15.470;2023-05-10T07:52:13;11.80;74.70
22006;DHT22;11167;46.988;15.470;2023-05-10T07:54:15;11.80;74.70
22006;DHT22;11167;46.988;15.470;2023-05-10T07:56:21;11.80;74.70
22006;DHT22;11167;46.988;15.470;2023-05-10T07:58:23;11.80;74.80
22006;DHT22;11167;46.988;15.470;2023-05-10T08:00:24;11.80;74.90
22006;DHT22;11167;46.988;15.470;2023-05-10T08:02:26;11.80;74.90
22006;DHT22;11167;46.988;15.470;2023-05-10T08:04:28;11.90;74.90
22006;DHT22;11167;46.988;15.470;2023-05-10T08:06:29;11.90;74.90
22006;DHT22;11167;46.988;15.470;2023-05-10T08:08:31;11.90;75.00
22006;DHT22;11167;46.988;15.470;2023-05-10T08:10:32;11.90;75.00
22006;DHT22;11167;46.988;15.470;2023-05-10T08:12:33;11.90;75.00
22006;DHT22;11167;46.988;15.470;2023-05-10T08:14:34;11.90;75.00
22006;DHT22;11167;46.988;15.470;2023-05-10T08:16:37;12.00;75.20
22006;DHT22;11167;46.988;15.470;2023-05-10T08:18:39;12.00;75.20
22006;DHT22;11167;46.988;15.470;2023-05-10T08:20:40;12.00;75.10
22006;DHT22;11167;46.988;15.470;2023-05-10T08:22:42;12.00;75.00
22006;DHT22;11167;46.988;15.470;2023-05-10T08:24:43;12.00;75.10
22006;DHT22;11167;46.988;15.470;2023-05-10T08:26:44;12.00;75.10
22006;DHT22;11167;46.988;15.470;2023-05-10T08:28:45;12.10;75.20
22006;DHT22;11167;46.988;15.470;2023-05-10T08:30:46;12.10;75.00
22006;DHT22;11167;46.988;15.470;2023-05-10T08:32:47;12.10;75.20
22006;DHT22;11167;46.988;15.470;2023-05-10T08:34:48;12.10;75.20
22006;DHT22;11167;46.988;15.470;2023-05-10T08:36:49;12.10;75.20
22006;DHT22;11167;46.988;15.470;2023-05-10T08:38:50;12.20;75.30
22006;DHT22;11167;46.988;15.470;2023-05-10T08:40:55;12.20;75.30
22006;DHT22;11167;46.988;15.470;2023-05-10T08:43:06;12.20;75.30
22006;DHT22;11167;46.988;15.470;2023-05-10T08:45:09;12.20;75.40
22006;DHT22;11167;46.988;15.470;2023-05-10T08:47:11;12.20;75.40
22006;DHT22;11167;46.988;15.470;2023-05-10T08:49:16;12.30;75.50
22006;DHT22;11167;46.988;15.470;2023-05-10T08:51:25;12.30;75.50
22006;DHT22;11167;46.988;15.470;2023-05-10T08:53:24;12.30;75.50
22006;DHT22;11167;46.988;15.470;2023-05-10T08:55:27;12.30;75.50
22006;DHT22;11167;46.988;15.470;2023-05-10T08:57:28;12.30;75.60
22006;DHT22;11167;46.988;15.470;2023-05-10T08:59:29;12.40;75.70
22006;DHT22;11167;46.988;15.470;2023-05-10T09:01:31;12.40;75.70
22006;DHT22;11167;46.988;15.470;2023-05-10T09:03:33;12.40;75.60
22006;DHT22;11167;46.988;15.470;2023-05-10T09:05:35;12.40;75.70
22006;DHT22;11167;46.988;15.470;2023-05-10T09:07:37;12.50;75.70
22006;DHT22;11167;46.988;15.470;2023-05-10T09:09:38;12.40;75.70
22006;DHT22;11167;46.988;15.470;2023-05-10T09:11:39;12.50;75.80
22006;DHT22;11167;46.988;15.470;2023-05-10T09:13:40;12.50;75.80
22006;DHT22;11167;46.988;15.470;2023-05-10T09:15:44;12.60;76.00
22006;DHT22;11167;46.988;15.470;2023-05-10T09:17:46;12.60;75.90
22006;DHT22;11167;46.988;15.470;2023-05-10T09:19:48;12.60;75.90
22006;DHT22;11167;46.988;15.470;2023-05-10T09:21:49;12.60;75.90
22006;DHT22;11167;46.988;15.470;2023-05-10T09:23:50;12.70;76.00
22006;DHT22;11167;46.988;15.470;2023-05-10T09:26:07;12.70;76.00
22006;DHT22;11167;46.988;15.470;2023-05-10T09:28:06;12.70;76.00
22006;DHT22;11167;46.988;15.470;2023-05-10T09:30:09;12.80;76.00
22006;DHT22;11167;46.988;15.470;2023-05-10T09:32:10;12.80;76.00
22006;DHT22;11167;46.988;15.470;2023-05-10T09:34:11;12.80;76.00
22006;DHT22;11167;46.988;15.470;2023-05-10T09:36:14;12.80;76.10
22006;DHT22;11167;46.988;15.470;2023-05-10T09:38:15;12.80;76.10
22006;DHT22;11167;46.988;15.470;2023-05-10T09:40:19;12.90;76.10
22006;DHT22;11167;46.988;15.470;2023-05-10T09:42:20;12.90;77.00
22006;DHT22;11167;46.988;15.470;2023-05-10T09:44:21;13.00;76.70
22006;DHT22;11167;46.988;15.470;2023-05-10T09:46:22;13.00;76.20
22006;DHT22;11167;46.988;15.470;2023-05-10T09:48:24;13.00;76.20
22006;DHT22;11167;46.988;15.470;2023-05-10T09:50:26;13.10;76.30
22006;DHT22;11167;46.988;15.470;2023-05-10T09:52:27;13.10;76.20
22006;DHT22;11167;46.988;15.470;2023-05-10T09:54:28;13.10;76.20
22006;DHT22;11167;46.988;15.470;2023-05-10T09:56:36;13.20;76.40
22006;DHT22;11167;46.988;15.470;2023-05-10T09:58:39;13.20;76.30
22006;DHT22;11167;46.988;15.470;2023-05-10T10:00:41;13.20;76.30
22006;DHT22;11167;46.988;15.470;2023-05-10T10:02:42;13.30;76.40
22006;DHT22;11167;46.988;15.470;2023-05-10T10:04:48;13.30;76.40
22006;DHT22;11167;46.988;15.470;2023-05-10T10:07:05;13.30;76.40
22006;DHT22;11167;46.988;15.470;2023-05-10T10:09:05;13.40;76.40
22006;DHT22;11167;46.988;15.470;2023-05-10T10:11:07;13.40;76.60
22006;DHT22;11167;46.988;15.470;2023-05-10T10:13:08;13.40;76.50
22006;DHT22;11167;46.988;15.470;2023-05-10T10:15:10;13.50;76.60
22006;DHT22;11167;46.988;15.470;2023-05-10T10:17:12;13.50;76.60
22006;DHT22;11167;46.988;15.470;2023-05-10T10:19:13;13.50;76.60
22006;DHT22;11167;46.988;15.470;2023-05-10T10:21:15;13.60;76.60
22006;DHT22;11167;46.988;15.470;2023-05-10T10:23:17;13.60;76.60
22006;DHT22;11167;46.988;15.470;2023-05-10T10:25:19;13.60;76.60
22006;DHT22;11167;46.988;15.470;2023-05-10T10:27:40;13.70;76.60
22006;DHT22;11167;46.988;15.470;2023-05-10T10:29:47;13.70;76.60
22006;DHT22;11167;46.988;15.470;2023-05-10T10:32:10;13.80;76.70
22006;DHT22;11167;46.988;15.470;2023-05-10T10:34:00;13.80;76.70
22006;DHT22;11167;46.988;15.470;2023-05-10T10:36:03;13.80;76.70
22006;DHT22;11167;46.988;15.470;2023-05-10T10:38:07;13.90;76.80
22006;DHT22;11167;46.988;15.470;2023-05-10T10:40:22;13.90;76.80
22006;DHT22;11167;46.988;15.470;2023-05-10T10:42:43;14.00;76.80
22006;DHT22;11167;46.988;15.470;2023-05-10T10:44:45;14.00;76.80
22006;DHT22;11167;46.988;15.470;2023-05-10T10:49:22;14.10;76.80
22006;DHT22;11167;46.988;15.470;2023-05-10T10:51:23;14.10;76.80
22006;DHT22;11167;46.988;15.470;2023-05-10T10:53:26;14.20;76.80
22006;DHT22;11167;46.988;15.470;2023-05-10T10:55:28;14.20;76.80
22006;DHT22;11167;46.988;15.470;2023-05-10T10:59:49;14.30;76.80
22006;DHT22;11167;46.988;15.470;2023-05-10T11:01:51;14.30;76.80
22006;DHT22;11167;46.988;15.470;2023-05-10T11:06:03;14.40;76.80
22006;DHT22;11167;46.988;15.470;2023-05-10T11:08:14;14.40;76.70
22006;DHT22;11167;46.988;15.470;2023-05-10T11:10:21;14.50;76.80
22006;DHT22;11167;46.988;15.470;2023-05-10T11:12:22;14.50;76.80
22006;DHT22;11167;46.988;15.470;2023-05-10T11:14:23;14.50;76.80
22006;DHT22;11167;46.988;15.470;2023-05-10T11:16:25;14.60;76.90
22006;DHT22;11167;46.988;15.470;2023-05-10T11:18:29;14.60;76.80
22006;DHT22;11167;46.988;15.470;2023-05-10T11:20:38;14.70;76.90
22006;DHT22;11167;46.988;15.470;2023-05-10T11:22:55;14.70;76.80
22006;DHT22;11167;46.988;15.470;2023-05-10T11:24:57;14.70;76.80
22006;DHT22;11167;46.988;15.470;2023-05-10T11:27:01;14.80;76.80
22006;DHT22;11167;46.988;15.470;2023-05-10T11:29:02;14.80;76.80
22006;DHT22;11167;46.988;15.470;2023-05-10T11:31:05;14.90;76.90
22006;DHT22;11167;46.988;15.470;2023-05-10T11:33:07;14.90;76.80
22006;DHT22;11167;46.988;15.470;2023-05-10T11:35:10;14.90;76.80
22006;DHT22;11167;46.988;15.470;2023-05-10T11:37:11;15.00;76.90
22006;DHT22;11167;46.988;15.470;2023-05-10T11:39:12;15.00;76.90
22006;DHT22;11167;46.988;15.470;2023-05-10T11:41:13;15.00;76.80
22006;DHT22;11167;46.988;15.470;2023-05-10T11:43:14;15.10;76.80
22006;DHT22;11167;46.988;15.470;2023-05-10T11:45:15;15.10;76.90
22006;DHT22;11167;46.988;15.470;2023-05-10T11:47:17;15.10;76.80
22006;DHT22;11167;46.988;15.470;2023-05-10T11:49:18;15.20;76.90
22006;DHT22;11167;46.988;15.470;2023-05-10T11:51:20;15.20;76.90
22006;DHT22;11167;46.988;15.470;2023-05-10T11:53:21;15.20;76.90
22006;DHT22;11167;46.988;15.470;2023-05-10T11:55:23;15.30;76.90
22006;DHT22;11167;46.988;15.470;2023-05-10T11:57:27;15.30;76.80
22006;DHT22;11167;46.988;15.470;2023-05-10T11:59:29;15.30;76.80
22006;DHT22;11167;46.988;15.470;2023-05-10T12:01:31;15.40;76.80
22006;DHT22;11167;46.988;15.470;2023-05-10T12:03:32;15.40;76.80
22006;DHT22;11167;46.988;15.470;2023-05-10T12:05:33;15.50;76.90
22006;DHT22;11167;46.988;15.470;2023-05-10T12:07:35;15.50;77.70
22006;DHT22;11167;46.988;15.470;2023-05-10T12:09:36;15.50;76.80
22006;DHT22;11167;46.988;15.470;2023-05-10T12:11:38;15.50;76.70
22006;DHT22;11167;46.988;15.470;2023-05-10T12:13:42;15.50;76.80
22006;DHT22;11167;46.988;15.470;2023-05-10T12:15:43;15.60;76.80
22006;DHT22;11167;46.988;15.470;2023-05-10T12:17:45;15.60;76.80
22006;DHT22;11167;46.988;15.470;2023-05-10T12:19:46;15.60;76.80
22006;DHT22;11167;46.988;15.470;2023-05-10T12:21:47;15.70;76.80
22006;DHT22;11167;46.988;15.470;2023-05-10T12:23:54;15.70;76.70
22006;DHT22;11167;46.988;15.470;2023-05-10T12:26:03;15.70;76.80
22006;DHT22;11167;46.988;15.470;2023-05-10T12:28:07;15.80;76.80
22006;DHT22;11167;46.988;15.470;2023-05-10T12:30:08;15.80;76.70
22006;DHT22;11167;46.988;15.470;2023-05-10T12:32:09;15.80;76.70
22006;DHT22;11167;46.988;15.470;2023-05-10T12:34:11;15.80;76.70
22006;DHT22;11167;46.988;15.470;2023-05-10T12:36:13;15.90;76.70
22006;DHT22;11167;46.988;15.470;2023-05-10T12:40:29;15.90;76.70
22006;DHT22;11167;46.988;15.470;2023-05-10T12:42:30;15.90;76.30
22006;DHT22;11167;46.988;15.470;2023-05-10T12:44:32;16.00;76.80
22006;DHT22;11167;46.988;15.470;2023-05-10T12:46:33;16.00;76.80
22006;DHT22;11167;46.988;15.470;2023-05-10T12:48:35;16.00;76.80
22006;DHT22;11167;46.988;15.470;2023-05-10T12:50:36;16.00;76.80
22006;DHT22;11167;46.988;15.470;2023-05-10T12:52:37;16.10;76.80
22006;DHT22;11167;46.988;15.470;2023-05-10T12:54:38;16.10;76.80
22006;DHT22;11167;46.988;15.470;2023-05-10T12:56:39;16.10;76.80
22006;DHT22;11167;46.988;15.470;2023-05-10T12:58:41;16.10;76.70
22006;DHT22;11167;46.988;15.470;2023-05-10T13:00:42;16.20;76.80
22006;DHT22;11167;46.988;15.470;2023-05-10T13:02:44;16.20;77.60
22006;DHT22;11167;46.988;15.470;2023-05-10T13:04:45;16.20;76.80
22006;DHT22;11167;46.988;15.470;2023-05-10T13:06:47;16.30;76.80
22006;DHT22;11167;46.988;15.470;2023-05-10T13:08:48;16.30;76.80
22006;DHT22;11167;46.988;15.470;2023-05-10T13:10:49;16.30;76.80
22006;DHT22;11167;46.988;15.470;2023-05-10T13:12:50;16.30;76.70
22006;DHT22;11167;46.988;15.470;2023-05-10T13:14:52;16.40;76.80